Saturday, June 25, 2016
12:16 UTC
  |  Log In   |  Register Free
Airport Search:

Chanute Martin Johnson Airport
(KCNU)

Chanute Martin Johnson Airport Diagram
No Airport Diagram Available

FAA data valid effective May 26 2016 - Jul 21 2016 (unless otherwise noted).

 
 
 
 
 
 
 
 
 
 
 
 
 
 
Current Aviation Weather for KCNU

Weather Summary


The most recent METAR observation for CNU was updated at: 12:52 UTC
METAR for KCNU is not available. Closest METAR is for KPPF
KCNU  (most recent observation was updatred at 25:11 UTC)
251152Z AUTO 16007KT 10SM CLR 23/21 A3001 RMK AO2 SLP147 T02330206 10244 20228 53010

KPPF  (20.3 nm NE)   (most recent observation was updated at 25:11 UTC)
251152Z AUTO 17005KT 10SM CLR 24/21 A3003 RMK AO2 SLP156 70004 T02390206 10256 20233 53012

KIDP  (33.7 nm NE)   (most recent observation was updated at 25:11 UTC)
251155Z AUTO 17007KT 10SM CLR 23/19 A3000 RMK AO2

TAF for KCNU is not available.
KCNU
AMD 251127Z 2511/2612 18007KT P6SM SCT250 FM251600 19015G21KT P6SM SCT250 FM260100 17007KT P6SM FEW250

GlobalAir.com is loading additional information.
 Current Weather at CNU
74.0 F° (23.3 C°)

South winds at 6.9 mph
Pressure:
29.99 in
Humidity:
85%
Wind:
South at 6.9 mph
Dew Point:
69.1 F° (20.6 C°)
Visibility:
10.00 mi
CNU NOAA Radar




Find All Airport Services Find A Hotel Find A Rental Car Find A Golf Course Find A Restaurant $100 Hamburger



Airport Weather Forecast for KCNU

Translated METAR for KCNU (1152 UTC)
METAR:
KCNU 251152Z AUTO 16007KT 10SM CLR 23/21 A3001 RMK AO2 SLP147 T02330206 10244 20228 53010
Conditions at:
KCNU (Chanute Martin Johnson, KS) observed 1152 UTC 25 June 2016
Temperature:
23°C (73.4°F)
Dewpoint:
21°C (69.8°F) [RH = 88.5]
Pressure:
30.01 inches Hg (1016.3 mb)
pressure at sea level is 147 in Hg
Winds:
from the SSE (160 degrees) at 8.1 mph (7 knots: 3.6 m/s)
Visibility:
10 mile(s)
Ceiling:
at least 12,000 feet AGL
Clouds:
Clear below 12,000 feet AGL
Remarks:
site is un-manned
site is automated and HAS a precipitation sensor

Translated TAF for KCNU (Chanute Martin Johnson, KS) (1127 UTC)
TAF text:
KCNU 251127Z 2511/2612 18007KT P6SM SCT250
Forecast period:
Saturday Jun 25 2016 11:00 UTC - Sunday Jun 26 2016 12:00 UTC
Forecast type:
FROM: standard forecast or significant change
Winds:
from the S (180 degrees) at 8.1 mph (7 knots: 3.6 m/s)
Visibility:
6 or more mile(s) (9.7+ km)
Ceiling:
at least 12,000 feet AGL
Clouds:
Scattered Clouds at 25,000 feet AGL
Weather:
no significant weather observed at this time
TAF text:
FM251600 19015G21KT P6SM SCT250
Forecast period:
Saturday Jun 25 2016 16:00 UTC - Sunday Jun 26 2016 01:00 UTC
Forecast type:
FROM: standard forecast or significant change
Winds:
from the S (190 degrees) at 17.3 mph (15 knots: 7.7 m/s)
gusting to 24.2 mph (21 knots: 10.8 m/s)
Visibility:
6 or more mile(s) (9.7+ km)
Ceiling:
at least 12,000 feet AGL
Clouds:
Scattered Clouds at 25,000 feet AGL
Weather:
no significant weather observed at this time
TAF text:
FM260100 17007KT P6SM FEW250
Forecast period:
Sunday Jun 26 2016 01:00 UTC - Sunday Jun 26 2016 12:00 UTC
Forecast type:
FROM: standard forecast or significant change
Winds:
from the S (170 degrees) at 8.1 mph (7 knots: 3.6 m/s)
Visibility:
6 or more mile(s) (9.7+ km)
Ceiling:
at least 12,000 feet AGL
Clouds:
Few Clouds at 25,000 feet AGL
Weather:
no significant weather observed at this time
FBO's on the Field
FBO Company Facility Photos Services Transportation Aviation Fuel Prices: Prices include tax
Catering Weather Repair Courtesy Rental Type 100LL JetA JetA+ MOGAS 8087
 
City of Chanute

This FBO has not yet been rated
FS:Phillips 66
Last Updated: May-18
Login to update fuel prices
SS:
Contact City of ChanuteMore FBO Information
 
Add another FBO Facility Photos Catering Weather Repair Courtesy Rental Type 100LL JetA JetA+ MOGAS 8087
Services Transportation Aviation Fuel Prices: Prices include tax


model-print
model-print
model-print
model-print